Edith Kirk — 2DST9 — position and weather

sailwx.info

Track history (hours):
 
Tides and Currents Weather Stations Pressure Air Temp Water Temp Dewpoint Dewpoint Depression Visibility Wind Speed Wind Dir Waves Ship Positions

Edith Kirk

Last reported at 2016-Sep-28 12:33 UTC. Time now 2016-Sep-29 05:00 UTC.
Position N 51°21' E 004°17'.

Length 183 m; draft 10.1 m.

Type: Ship. MMSI: 235081745.

Date/timePositionNaut miles runAvg speedWind from/ knotsBaromVisibWave heightAir tempDewpointWater temp
2016-Sep-28 12:33N 51°21' E 004°17'22 5.5
2016-Sep-28 08:33N 51°25' E 003°43'46 9.2
2016-Sep-28 03:33N 51°22' E 002°29'5 4.6
2016-Sep-28 02:33N 51°20' E 002°22'1110.9
2016-Sep-28 01:33N 51°21' E 002°05'19 9.3
2016-Sep-27 23:33N 51°38' E 002°14'12212.0
2016-Sep-27 13:24N 53°30' E 003°34'  
2016-Sep-21 09:33N 69°04' E 033°05'0 0.0
2016-Sep-21 08:33N 69°04' E 033°05'0 0.0
2016-Sep-21 05:33N 69°04' E 033°05'0 0.0
2016-Sep-21 03:33N 69°04' E 033°05'0 0.0
2016-Sep-21 02:33N 69°04' E 033°05'  
Track history (hours):
 
Tides and Currents Weather Stations Pressure Air Temp Water Temp Dewpoint Dewpoint Depression Visibility Wind Speed Wind Dir Waves Ship Positions

Edith Kirk

Last reported at 2016-Sep-28 12:33 UTC. Time now 2016-Sep-29 05:00 UTC.
Position N 51°21' E 004°17'.

Length 183 m; draft 10.1 m.

Type: Ship. MMSI: 235081745.

Date/timePositionNaut miles runAvg speedWind from/ knotsBaromVisibWave heightAir tempDewpointWater temp
2016-Sep-28 12:33N 51°21' E 004°17'22 5.5
2016-Sep-28 08:33N 51°25' E 003°43'46 9.2
2016-Sep-28 03:33N 51°22' E 002°29'5 4.6
2016-Sep-28 02:33N 51°20' E 002°22'1110.9
2016-Sep-28 01:33N 51°21' E 002°05'19 9.3
2016-Sep-27 23:33N 51°38' E 002°14'12212.0
2016-Sep-27 13:24N 53°30' E 003°34'  
2016-Sep-21 09:33N 69°04' E 033°05'0 0.0
2016-Sep-21 08:33N 69°04' E 033°05'0 0.0
2016-Sep-21 05:33N 69°04' E 033°05'0 0.0
2016-Sep-21 03:33N 69°04' E 033°05'0 0.0
2016-Sep-21 02:33N 69°04' E 033°05'  

Dump ship's entire track history